Minerva Concert — SVWC — position and weather

sailwx.info

Track history (hours):
 
Tides and Currents Weather Stations Pressure Air Temp Water Temp Dewpoint Dewpoint Depression Visibility Wind Speed Wind Dir Waves Ship Positions

Minerva Concert

Last reported at 2014-Oct-21 09:10 UTC. Time now 2014-Oct-24 16:55 UTC.
Position N 59°58' E 027°00'.

Length 241 m; draft 7.8 m.

Type: Tanker. MMSI: 240110000.

Date/timePositionNaut miles runAvg speedWind from/ knotsBaromVisibWave heightAir tempDewpointWater temp
2014-Oct-21 09:10N 59°58' E 027°00'711.0
2014-Oct-21 08:30N 59°59' E 026°46'1410.7
2014-Oct-21 07:11N 59°56' E 026°18'4210.6
2014-Oct-21 03:11N 59°47' E 024°56'710.7
2014-Oct-21 02:33N 59°45' E 024°43'1010.3
2014-Oct-21 01:33N 59°43' E 024°23'1110.0
2014-Oct-21 00:25N 59°40' E 024°01'1110.3
2014-Oct-20 23:18N 59°36' E 023°39'810.6
2014-Oct-20 22:33N 59°34' E 023°25'34210.2
2014-Oct-19 13:03N 55°39' E 015°40'611.6
2014-Oct-19 12:33N 55°37' E 015°30'1211.6
2014-Oct-19 11:33N 55°32' E 015°12'1211.7
2014-Oct-19 10:33N 55°27' E 014°53'1111.4
2014-Oct-19 09:33N 55°21' E 014°36'1111.5
2014-Oct-19 08:33N 55°12' E 014°23'1010.3
2014-Oct-19 07:33N 55°10' E 014°06'1411.3
2014-Oct-19 06:18N 55°11' E 013°41'1211.4
2014-Oct-19 05:15N 55°12' E 013°20'811.8
2014-Oct-19 04:33N 55°13' E 013°06'1211.6
2014-Oct-19 03:33N 55°16' E 012°47'9 8.6
2014-Oct-19 02:33N 55°24' E 012°39'9 8.6
2014-Oct-19 01:33N 55°32' E 012°42'8 7.9
2014-Oct-19 00:33N 55°40' E 012°41'1110.5
2014-Oct-18 23:33N 55°51' E 012°41'1110.6
2014-Oct-18 22:33N 56°01' E 012°38'7 7.4
2014-Oct-18 21:33N 56°07' E 012°30'10 9.9
2014-Oct-18 20:33N 56°13' E 012°16'9 9.3
2014-Oct-18 19:33N 56°19' E 012°03'9 9.2
2014-Oct-18 18:34N 56°28' E 011°59'10 9.4
2014-Oct-18 17:31N 56°37' E 011°55'9 9.3
2014-Oct-18 16:33N 56°46' E 011°52'10 9.4
2014-Oct-18 15:30N 56°55' E 011°45'9 9.7
2014-Oct-18 14:33N 57°04' E 011°40'9 9.4
2014-Oct-18 13:33N 57°13' E 011°34'9 9.1
2014-Oct-18 12:33N 57°21' E 011°28'8 8.2
2014-Oct-18 11:33N 57°29' E 011°22'8 7.9
2014-Oct-18 10:33N 57°34' E 011°11'9 8.6
2014-Oct-18 09:33N 57°40' E 010°60'1010.4
2014-Oct-18 08:33N 57°47' E 010°45'1110.6
2014-Oct-18 07:33N 57°49' E 010°26'1110.6
2014-Oct-18 06:33N 57°48' E 010°06'1111.4
2014-Oct-18 05:33N 57°47' E 009°44'2311.4
2014-Oct-18 03:30N 57°40' E 009°03'8710.9
2014-Oct-17 19:31N 56°36' E 007°14'1111.3
2014-Oct-17 18:32N 56°26' E 007°03'1111.4
2014-Oct-17 17:33N 56°16' E 006°55'1211.3
2014-Oct-17 16:30N 56°05' E 006°46'1111.2
2014-Oct-17 15:31N 55°55' E 006°38'1111.2
2014-Oct-17 14:33N 55°45' E 006°30'1111.2
2014-Oct-17 13:32N 55°35' E 006°22'1111.2
2014-Oct-17 12:33N 55°25' E 006°14'1111.2
2014-Oct-17 11:32N 55°14' E 006°06'5811.3
2014-Oct-17 06:26N 54°23' E 005°19'9 9.7
2014-Oct-17 05:31N 54°17' E 005°09'9 9.8
2014-Oct-17 04:33N 54°09' E 004°59'1010.0
2014-Oct-17 03:32N 54°02' E 004°47'1010.1
2014-Oct-17 02:30N 53°54' E 004°35'126 6.0
2014-Oct-16 05:31N 52°06' E 002°47'0 0.0
2014-Oct-14 15:13N 52°06' E 002°47'0 0.0
2014-Oct-14 14:31N 52°06' E 002°47'0 0.1
2014-Oct-14 13:28N 52°06' E 002°47'0 0.0
2014-Oct-12 23:25N 52°06' E 002°47'0 0.0
2014-Oct-12 22:28N 52°06' E 002°47'7 0.6
2014-Oct-12 09:29N 52°05' E 002°58'1010.3
2014-Oct-12 08:32N 52°03' E 003°14'1010.2
2014-Oct-12 07:33N 52°04' E 003°30'10 9.8
2014-Oct-12 06:33N 52°04' E 003°46'9 9.0
2014-Oct-12 05:33N 52°01' E 003°59'2 2.4
2014-Oct-12 04:33N 51°59' E 004°01'1 0.5
2014-Oct-12 03:12N 51°59' E 003°59'0 0.0
2014-Oct-12 02:27N 51°59' E 003°59'0 0.0
2014-Oct-12 01:33N 51°59' E 003°59'0 0.0
2014-Oct-12 00:33N 51°59' E 003°59'0 0.0
2014-Oct-11 23:24N 51°59' E 003°59'0 0.0
2014-Oct-11 21:33N 51°59' E 003°59'0 0.0
2014-Oct-11 20:15N 51°59' E 003°59'0 0.0
2014-Oct-11 19:27N 51°59' E 003°59'0 0.0
2014-Oct-11 18:27N 51°59' E 003°59'0 0.0
2014-Oct-11 17:30N 51°59' E 003°59'0 0.0
2014-Oct-11 16:33N 51°59' E 003°59'0 0.0
2014-Oct-11 15:09N 51°59' E 003°59'0 0.0
2014-Oct-11 14:33N 51°59' E 003°59'0 0.0
2014-Oct-11 13:18N 51°59' E 003°59'0 0.0
2014-Oct-11 12:24N 51°59' E 003°59'0 0.0
2014-Oct-11 11:33N 51°59' E 003°59'0 0.0
2014-Oct-11 09:21N 51°59' E 003°59'  
Track history (hours):
 
Tides and Currents Weather Stations Pressure Air Temp Water Temp Dewpoint Dewpoint Depression Visibility Wind Speed Wind Dir Waves Ship Positions

Minerva Concert

Last reported at 2014-Oct-21 09:10 UTC. Time now 2014-Oct-24 16:55 UTC.
Position N 59°58' E 027°00'.

Length 241 m; draft 7.8 m.

Type: Tanker. MMSI: 240110000.

Date/timePositionNaut miles runAvg speedWind from/ knotsBaromVisibWave heightAir tempDewpointWater temp
2014-Oct-21 09:10N 59°58' E 027°00'711.0
2014-Oct-21 08:30N 59°59' E 026°46'1410.7
2014-Oct-21 07:11N 59°56' E 026°18'4210.6
2014-Oct-21 03:11N 59°47' E 024°56'710.7
2014-Oct-21 02:33N 59°45' E 024°43'1010.3
2014-Oct-21 01:33N 59°43' E 024°23'1110.0
2014-Oct-21 00:25N 59°40' E 024°01'1110.3
2014-Oct-20 23:18N 59°36' E 023°39'810.6
2014-Oct-20 22:33N 59°34' E 023°25'34210.2
2014-Oct-19 13:03N 55°39' E 015°40'611.6
2014-Oct-19 12:33N 55°37' E 015°30'1211.6
2014-Oct-19 11:33N 55°32' E 015°12'1211.7
2014-Oct-19 10:33N 55°27' E 014°53'1111.4
2014-Oct-19 09:33N 55°21' E 014°36'1111.5
2014-Oct-19 08:33N 55°12' E 014°23'1010.3
2014-Oct-19 07:33N 55°10' E 014°06'1411.3
2014-Oct-19 06:18N 55°11' E 013°41'1211.4
2014-Oct-19 05:15N 55°12' E 013°20'811.8
2014-Oct-19 04:33N 55°13' E 013°06'1211.6
2014-Oct-19 03:33N 55°16' E 012°47'9 8.6
2014-Oct-19 02:33N 55°24' E 012°39'9 8.6
2014-Oct-19 01:33N 55°32' E 012°42'8 7.9
2014-Oct-19 00:33N 55°40' E 012°41'1110.5
2014-Oct-18 23:33N 55°51' E 012°41'1110.6
2014-Oct-18 22:33N 56°01' E 012°38'7 7.4
2014-Oct-18 21:33N 56°07' E 012°30'10 9.9
2014-Oct-18 20:33N 56°13' E 012°16'9 9.3
2014-Oct-18 19:33N 56°19' E 012°03'9 9.2
2014-Oct-18 18:34N 56°28' E 011°59'10 9.4
2014-Oct-18 17:31N 56°37' E 011°55'9 9.3
2014-Oct-18 16:33N 56°46' E 011°52'10 9.4
2014-Oct-18 15:30N 56°55' E 011°45'9 9.7
2014-Oct-18 14:33N 57°04' E 011°40'9 9.4
2014-Oct-18 13:33N 57°13' E 011°34'9 9.1
2014-Oct-18 12:33N 57°21' E 011°28'8 8.2
2014-Oct-18 11:33N 57°29' E 011°22'8 7.9
2014-Oct-18 10:33N 57°34' E 011°11'9 8.6
2014-Oct-18 09:33N 57°40' E 010°60'1010.4
2014-Oct-18 08:33N 57°47' E 010°45'1110.6
2014-Oct-18 07:33N 57°49' E 010°26'1110.6
2014-Oct-18 06:33N 57°48' E 010°06'1111.4
2014-Oct-18 05:33N 57°47' E 009°44'2311.4
2014-Oct-18 03:30N 57°40' E 009°03'8710.9
2014-Oct-17 19:31N 56°36' E 007°14'1111.3
2014-Oct-17 18:32N 56°26' E 007°03'1111.4
2014-Oct-17 17:33N 56°16' E 006°55'1211.3
2014-Oct-17 16:30N 56°05' E 006°46'1111.2
2014-Oct-17 15:31N 55°55' E 006°38'1111.2
2014-Oct-17 14:33N 55°45' E 006°30'1111.2
2014-Oct-17 13:32N 55°35' E 006°22'1111.2
2014-Oct-17 12:33N 55°25' E 006°14'1111.2
2014-Oct-17 11:32N 55°14' E 006°06'5811.3
2014-Oct-17 06:26N 54°23' E 005°19'9 9.7
2014-Oct-17 05:31N 54°17' E 005°09'9 9.8
2014-Oct-17 04:33N 54°09' E 004°59'1010.0
2014-Oct-17 03:32N 54°02' E 004°47'1010.1
2014-Oct-17 02:30N 53°54' E 004°35'126 6.0
2014-Oct-16 05:31N 52°06' E 002°47'0 0.0
2014-Oct-14 15:13N 52°06' E 002°47'0 0.0
2014-Oct-14 14:31N 52°06' E 002°47'0 0.1
2014-Oct-14 13:28N 52°06' E 002°47'0 0.0
2014-Oct-12 23:25N 52°06' E 002°47'0 0.0
2014-Oct-12 22:28N 52°06' E 002°47'7 0.6
2014-Oct-12 09:29N 52°05' E 002°58'1010.3
2014-Oct-12 08:32N 52°03' E 003°14'1010.2
2014-Oct-12 07:33N 52°04' E 003°30'10 9.8
2014-Oct-12 06:33N 52°04' E 003°46'9 9.0
2014-Oct-12 05:33N 52°01' E 003°59'2 2.4
2014-Oct-12 04:33N 51°59' E 004°01'1 0.5
2014-Oct-12 03:12N 51°59' E 003°59'0 0.0
2014-Oct-12 02:27N 51°59' E 003°59'0 0.0
2014-Oct-12 01:33N 51°59' E 003°59'0 0.0
2014-Oct-12 00:33N 51°59' E 003°59'0 0.0
2014-Oct-11 23:24N 51°59' E 003°59'0 0.0
2014-Oct-11 21:33N 51°59' E 003°59'0 0.0
2014-Oct-11 20:15N 51°59' E 003°59'0 0.0
2014-Oct-11 19:27N 51°59' E 003°59'0 0.0
2014-Oct-11 18:27N 51°59' E 003°59'0 0.0
2014-Oct-11 17:30N 51°59' E 003°59'0 0.0
2014-Oct-11 16:33N 51°59' E 003°59'0 0.0
2014-Oct-11 15:09N 51°59' E 003°59'0 0.0
2014-Oct-11 14:33N 51°59' E 003°59'0 0.0
2014-Oct-11 13:18N 51°59' E 003°59'0 0.0
2014-Oct-11 12:24N 51°59' E 003°59'0 0.0
2014-Oct-11 11:33N 51°59' E 003°59'0 0.0
2014-Oct-11 09:21N 51°59' E 003°59'  

Dump ship's entire track history